Time;durP1;ratioP1;P1;durP2;ratioP2;P2;SDS_P1;SDS_P2;PMS_P1;PMS_P2;Temp;Humidity;BMP_temperature;BMP_pressure;BME280_temperature;BME280_humidity;BME280_pressure;Samples;Min_cycle;Max_cycle;Signal;HPM_P1;HPM_P2
2022/12/13 00:01:44;;;;;;;24.93;14.07;;;;;;;-1.87;96.87;98087.48;2190005;81;20952;-82
2022/12/13 00:04:44;;;;;;;24.93;14.33;;;;;;;-1.92;96.28;98085.58;2189991;81;21291;-82
2022/12/13 00:07:45;;;;;;;22.00;13.53;;;;;;;-1.95;96.09;98093.51;2190309;81;20972;-81
2022/12/13 00:10:45;;;;;;;20.97;14.50;;;;;;;-1.97;96.44;98088.72;2190242;81;20901;-83
2022/12/13 00:13:46;;;;;;;24.40;17.13;;;;;;;-1.97;96.85;98085.76;2190124;81;21196;-82
2022/12/13 00:16:46;;;;;;;26.00;15.20;;;;;;;-1.97;97.01;98092.55;2190098;81;20960;-81
2022/12/13 00:19:46;;;;;;;21.40;15.07;;;;;;;-1.99;97.05;98096.31;2189972;81;20921;-83
2022/12/13 00:22:47;;;;;;;29.60;16.27;;;;;;;-1.97;96.97;98103.66;2190111;81;20937;-81
2022/12/13 00:25:47;;;;;;;22.80;15.10;;;;;;;-2.00;96.89;98098.40;2185604;81;20992;-82
2022/12/13 00:28:50;;;;;;;26.13;14.83;;;;;;;-2.06;97.30;98101.94;2173281;81;21309;-81
2022/12/13 00:31:48;;;;;;;22.17;13.20;;;;;;;-2.08;97.36;98099.70;2173427;81;20918;-83
2022/12/13 00:34:48;;;;;;;22.03;14.60;;;;;;;-2.07;97.06;98104.02;2173500;81;20965;-82
2022/12/13 00:37:49;;;;;;;23.57;15.50;;;;;;;-2.11;97.53;98102.52;2173540;81;20964;-82
2022/12/13 00:40:50;;;;;;;21.50;14.37;;;;;;;-2.17;97.60;98104.37;2173330;81;21121;-83
2022/12/13 00:43:50;;;;;;;17.17;13.17;;;;;;;-2.21;97.21;98105.02;2173520;81;20980;-83
2022/12/13 00:46:53;;;;;;;17.87;13.87;;;;;;;-2.21;96.65;98114.38;2173476;81;20952;-82
2022/12/13 00:49:54;;;;;;;22.43;13.90;;;;;;;-2.23;96.45;98119.41;2173221;82;21348;-83
2022/12/13 00:52:54;;;;;;;24.00;14.80;;;;;;;-2.24;96.93;98117.66;2173443;81;20929;-84
2022/12/13 00:55:54;;;;;;;27.27;16.50;;;;;;;-2.23;96.50;98121.96;2173680;81;20921;-82
2022/12/13 00:58:55;;;;;;;24.97;15.60;;;;;;;-2.21;96.19;98126.75;2173369;81;21023;-83
2022/12/13 01:01:55;;;;;;;24.07;15.53;;;;;;;-2.21;95.41;98128.03;2173432;81;20957;-83
2022/12/13 01:04:55;;;;;;;23.77;15.53;;;;;;;-2.25;95.66;98131.23;2173580;81;20977;-83
2022/12/13 01:07:56;;;;;;;23.47;14.93;;;;;;;-2.27;95.70;98123.49;2173426;81;21292;-82
2022/12/13 01:10:56;;;;;;;23.63;14.57;;;;;;;-2.27;95.64;98122.21;2173438;81;20960;-81
2022/12/13 01:13:58;;;;;;;21.37;15.03;;;;;;;-2.25;95.59;98117.17;2173289;81;21012;-82
2022/12/13 01:16:58;;;;;;;25.60;13.57;;;;;;;-2.23;95.40;98119.81;2173367;81;20968;-81
2022/12/13 01:19:59;;;;;;;22.00;13.30;;;;;;;-2.25;95.62;98120.61;2173473;81;20956;-81
2022/12/13 01:22:59;;;;;;;19.13;13.00;;;;;;;-2.25;95.76;98123.56;2173632;81;21313;-81
2022/12/13 01:26:00;;;;;;;21.10;13.63;;;;;;;-2.32;96.42;98124.94;2173347;81;20973;-82
2022/12/13 01:29:00;;;;;;;18.07;12.37;;;;;;;-2.32;96.18;98126.62;2173281;82;21348;-82
2022/12/13 01:32:00;;;;;;;21.90;14.17;;;;;;;-2.32;95.93;98135.16;2173482;81;20984;-82
2022/12/13 01:35:01;;;;;;;19.80;13.60;;;;;;;-2.30;95.66;98135.23;2173420;81;20916;-82
2022/12/13 01:38:01;;;;;;;19.00;12.97;;;;;;;-2.31;95.48;98131.81;2173400;81;20929;-82
2022/12/13 01:41:02;;;;;;;22.37;13.90;;;;;;;-2.30;95.61;98137.80;2173250;82;20957;-82
2022/12/13 01:44:02;;;;;;;22.37;14.00;;;;;;;-2.28;95.70;98135.80;2173398;81;20949;-82
2022/12/13 01:47:02;;;;;;;16.17;10.47;;;;;;;-2.26;95.32;98135.88;2173345;81;20987;-81
2022/12/13 01:50:03;;;;;;;20.53;13.03;;;;;;;-2.24;95.46;98136.83;2173245;81;20996;-81
2022/12/13 01:53:03;;;;;;;24.80;14.53;;;;;;;-2.22;95.28;98141.61;2173381;81;20972;-82
2022/12/13 01:56:04;;;;;;;19.77;14.00;;;;;;;-2.18;95.24;98145.20;2173328;81;20960;-82
2022/12/13 01:59:04;;;;;;;20.97;13.17;;;;;;;-2.20;95.12;98136.58;2173411;81;20949;-82
2022/12/13 02:02:04;;;;;;;24.53;14.83;;;;;;;-2.22;94.97;98144.17;2173336;81;20919;-82
2022/12/13 02:05:05;;;;;;;19.67;14.60;;;;;;;-2.23;95.02;98144.97;2173558;81;20972;-82
2022/12/13 02:08:05;;;;;;;20.87;14.47;;;;;;;-2.23;95.00;98146.66;2173636;81;20984;-82
2022/12/13 02:11:06;;;;;;;20.30;14.20;;;;;;;-2.27;94.76;98144.34;2173366;81;21352;-82
2022/12/13 02:14:08;;;;;;;20.43;13.93;;;;;;;-2.29;94.76;98152.33;2173354;81;20965;-82
2022/12/13 02:17:07;;;;;;;21.97;15.60;;;;;;;-2.31;94.85;98155.21;2173677;81;20901;-82
2022/12/13 02:20:07;;;;;;;24.43;15.30;;;;;;;-2.32;94.84;98158.17;2173465;81;20973;-82
2022/12/13 02:23:07;;;;;;;24.07;15.57;;;;;;;-2.33;94.74;98158.09;2173519;81;20893;-82
2022/12/13 02:26:08;;;;;;;23.27;14.37;;;;;;;-2.35;94.64;98158.41;2173747;81;21008;-82
2022/12/13 02:29:08;;;;;;;27.40;16.30;;;;;;;-2.38;94.71;98159.54;2173491;81;20969;-81
2022/12/13 02:32:09;;;;;;;24.17;16.50;;;;;;;-2.41;94.81;98159.38;2173522;81;20945;-82
2022/12/13 02:35:09;;;;;;;25.03;16.03;;;;;;;-2.41;94.95;98161.94;2173540;81;20958;-81
2022/12/13 02:38:09;;;;;;;24.13;14.57;;;;;;;-2.42;94.71;98164.02;2173347;81;20922;-81
2022/12/13 02:41:10;;;;;;;21.97;13.83;;;;;;;-2.43;94.71;98160.98;2173361;81;20956;-81
2022/12/13 02:44:10;;;;;;;23.13;15.80;;;;;;;-2.48;94.54;98164.58;2173210;81;21415;-81
2022/12/13 02:47:11;;;;;;;24.50;15.10;;;;;;;-2.51;94.64;98165.70;2173318;81;20913;-81
2022/12/13 02:50:11;;;;;;;24.13;15.67;;;;;;;-2.50;94.80;98169.13;2173400;81;20913;-80
2022/12/13 02:53:11;;;;;;;23.33;14.90;;;;;;;-2.50;94.77;98176.40;2173369;81;20929;-82
2022/12/13 02:56:12;;;;;;;20.97;14.33;;;;;;;-2.49;94.65;98179.83;2171993;81;21368;-81
2022/12/13 02:59:12;;;;;;;20.23;13.37;;;;;;;-2.50;94.75;98185.34;2173252;82;20933;-79
2022/12/13 03:02:13;;;;;;;20.80;15.13;;;;;;;-2.56;94.60;98182.47;2172817;81;20964;-81
2022/12/13 03:08:33;;;;;;;23.83;14.57;;;;;;;-2.55;94.57;98184.23;2172859;82;21059;-82
2022/12/13 03:14:52;;;;;;;21.00;14.60;;;;;;;-2.53;94.11;98185.58;2173394;82;21012;-81
2022/12/13 03:17:53;;;;;;;21.47;15.63;;;;;;;-2.55;94.22;98193.17;2173391;81;20941;-82
2022/12/13 03:20:54;;;;;;;22.87;15.17;;;;;;;-2.57;93.97;98189.26;2173413;81;21060;-82
2022/12/13 03:23:53;;;;;;;21.07;14.03;;;;;;;-2.59;94.09;98194.69;2173257;81;21378;-79
2022/12/13 03:26:54;;;;;;;20.27;13.97;;;;;;;-2.59;93.57;98188.70;2179804;81;20976;-82
2022/12/13 03:29:54;;;;;;;21.87;13.93;;;;;;;-2.62;93.66;98190.66;2190007;81;20924;-82
2022/12/13 03:32:55;;;;;;;17.53;13.17;;;;;;;-2.64;93.61;98196.09;2190001;81;20921;-82
2022/12/13 03:35:55;;;;;;;19.87;13.73;;;;;;;-2.65;93.76;98199.44;2189834;81;20937;-82
2022/12/13 03:38:56;;;;;;;18.67;13.50;;;;;;;-2.64;93.73;98201.20;2189947;81;20897;-84
2022/12/13 03:41:56;;;;;;;18.27;12.50;;;;;;;-1.44;100.00;98197.52;2189876;81;20952;-83
2022/12/13 03:44:56;;;;;;;17.67;12.63;;;;;;;-1.70;93.72;98192.82;2189853;81;21043;-83
2022/12/13 03:47:57;;;;;;;15.43;11.90;;;;;;;-1.97;91.94;98195.73;2189800;81;21317;-83
2022/12/13 03:50:57;;;;;;;19.00;11.97;;;;;;;-2.21;91.70;98200.89;2190084;81;20989;-83
2022/12/13 03:53:58;;;;;;;21.50;12.50;;;;;;;-2.36;92.45;98197.16;2189965;81;20917;-83
2022/12/13 03:56:58;;;;;;;19.37;12.07;;;;;;;-2.43;93.05;98199.31;2189991;81;20932;-83
2022/12/13 03:59:58;;;;;;;17.47;12.40;;;;;;;-2.48;93.01;98195.64;2189840;81;21359;-83
2022/12/13 04:02:59;;;;;;;18.03;11.53;;;;;;;-2.53;93.34;98195.41;2189855;81;20960;-83
2022/12/13 04:05:59;;;;;;;17.10;11.87;;;;;;;-2.52;93.46;98201.39;2190105;81;20953;-82
2022/12/13 04:09:00;;;;;;;19.27;12.97;;;;;;;-2.55;93.24;98203.79;2190000;81;20897;-83
2022/12/13 04:15:19;;;;;;;18.13;11.93;;;;;;;-2.56;93.29;98200.36;2189691;81;21020;-83
2022/12/13 04:18:19;;;;;;;16.73;11.07;;;;;;;-2.58;93.25;98207.06;2189699;81;20940;-82
2022/12/13 04:21:20;;;;;;;15.93;11.70;;;;;;;-2.59;93.25;98210.42;2189846;81;21008;-82
2022/12/13 04:24:20;;;;;;;16.13;12.00;;;;;;;-2.62;93.29;98214.94;2189639;81;21416;-83
2022/12/13 04:27:21;;;;;;;16.10;10.27;;;;;;;-2.64;93.04;98213.97;2189324;81;21079;-84
2022/12/13 04:30:21;;;;;;;15.23;11.47;;;;;;;-2.64;92.85;98213.97;2189762;81;20972;-85
2022/12/13 04:33:21;;;;;;;15.40;11.40;;;;;;;-2.64;92.52;98220.77;2188451;81;21481;-85
2022/12/13 04:36:24;;;;;;;18.07;12.00;;;;;;;-2.69;92.33;98221.80;2188276;81;20956;-85
2022/12/13 04:39:22;;;;;;;17.17;12.30;;;;;;;-2.69;92.36;98221.80;2188793;81;21011;-84
2022/12/13 04:42:23;;;;;;;17.23;12.17;;;;;;;-2.69;92.36;98223.47;2187601;81;21015;-83
2022/12/13 04:45:23;;;;;;;20.30;12.37;;;;;;;-2.70;92.66;98219.16;2186882;81;21054;-84
2022/12/13 04:48:23;;;;;;;18.93;12.37;;;;;;;-2.67;91.88;98216.77;2187260;81;21030;-83
2022/12/13 04:51:24;;;;;;;16.87;10.87;;;;;;;-2.70;91.52;98235.36;2188042;81;20965;-86
2022/12/13 04:54:24;;;;;;;14.53;9.80;;;;;;;-1.34;100.00;98221.88;2187671;81;21383;-84
2022/12/13 04:57:25;;;;;;;15.23;10.43;;;;;;;-1.38;89.75;98214.45;2187343;81;21056;-83
2022/12/13 05:00:25;;;;;;;17.00;11.37;;;;;;;-1.84;88.22;98217.69;2187015;81;20999;-84
2022/12/13 05:03:26;;;;;;;14.93;10.37;;;;;;;-2.16;89.41;98223.74;2187900;81;21367;-84
2022/12/13 05:06:26;;;;;;;12.67;10.03;;;;;;;-2.32;89.06;98228.86;2187970;81;21005;-84
2022/12/13 05:09:26;;;;;;;14.50;9.90;;;;;;;-2.44;89.67;98234.22;2187833;81;20999;-84
2022/12/13 05:12:27;;;;;;;14.53;9.83;;;;;;;-2.51;89.48;98241.09;2187113;81;20990;-76
2022/12/13 05:15:28;;;;;;;15.60;9.63;;;;;;;-2.57;89.00;98230.54;2186050;81;21027;-83
2022/12/13 05:18:28;;;;;;;13.50;10.13;;;;;;;-2.62;89.54;98228.98;2186628;81;20956;-84
2022/12/13 05:21:28;;;;;;;16.33;11.87;;;;;;;-2.60;89.34;98232.94;2186587;81;21030;-82
2022/12/13 05:24:28;;;;;;;17.13;11.80;;;;;;;-2.64;89.19;98232.25;2186364;81;20992;-86
2022/12/13 05:27:29;;;;;;;17.23;11.63;;;;;;;-2.65;90.01;98227.95;2185839;81;21392;-84
2022/12/13 05:30:29;;;;;;;16.13;11.70;;;;;;;-2.60;89.29;98231.66;2186302;81;21072;-84
2022/12/13 05:33:30;;;;;;;22.33;12.30;;;;;;;-2.62;89.42;98235.77;2186716;81;20964;-83
2022/12/13 05:36:30;;;;;;;15.63;11.10;;;;;;;-2.66;89.02;98241.12;2186891;81;20999;-86
2022/12/13 05:39:30;;;;;;;16.27;9.67;;;;;;;-2.66;89.06;98248.78;2186582;81;21759;-82
2022/12/13 05:42:31;;;;;;;17.90;10.47;;;;;;;-2.66;89.36;98246.23;2186503;81;20960;-82
2022/12/13 05:45:31;;;;;;;17.53;9.97;;;;;;;-2.65;89.72;98245.83;2187355;81;21367;-80
2022/12/13 05:48:32;;;;;;;13.37;9.83;;;;;;;-2.68;89.58;98247.82;2187755;81;21042;-83
2022/12/13 05:51:32;;;;;;;14.70;10.50;;;;;;;-2.64;89.31;98245.91;2186518;81;21007;-83
2022/12/13 05:54:33;;;;;;;16.47;11.20;;;;;;;-2.63;89.46;98246.79;2186473;81;20999;-83
2022/12/13 05:57:33;;;;;;;13.93;9.93;;;;;;;-2.61;89.68;98244.80;2186261;81;20971;-83
2022/12/13 06:00:33;;;;;;;15.40;11.10;;;;;;;-2.54;89.13;98252.82;2186709;81;21469;-83
2022/12/13 06:03:34;;;;;;;24.40;11.60;;;;;;;-2.55;89.29;98246.83;2186339;81;20968;-86
2022/12/13 06:06:34;;;;;;;22.40;12.80;;;;;;;-2.53;88.98;98249.06;2186841;81;21007;-81
2022/12/13 06:09:35;;;;;;;25.87;14.97;;;;;;;-2.54;89.41;98247.31;2186550;81;21036;-85
2022/12/13 06:12:35;;;;;;;24.93;16.80;;;;;;;-2.51;89.03;98252.98;2186660;81;21590;-84
2022/12/13 06:15:36;;;;;;;21.47;13.97;;;;;;;-2.54;89.03;98259.21;2186223;81;21039;-82
2022/12/13 06:18:36;;;;;;;20.13;14.10;;;;;;;-2.41;90.09;98260.34;2186431;81;21038;-84
2022/12/13 06:21:36;;;;;;;20.27;13.43;;;;;;;-2.43;89.19;98258.98;2186793;81;21039;-83
2022/12/13 06:24:37;;;;;;;20.33;11.60;;;;;;;-2.41;89.25;98259.06;2186759;81;21725;-84
2022/12/13 06:27:37;;;;;;;16.97;10.30;;;;;;;-2.38;89.05;98266.89;2180507;81;21027;-85
2022/12/13 06:30:38;;;;;;;21.63;12.23;;;;;;;-2.35;88.79;98268.33;2170659;81;20929;-84
2022/12/13 06:33:38;;;;;;;21.30;13.33;;;;;;;-2.40;88.97;98270.64;2169921;81;21785;-85
2022/12/13 06:36:38;;;;;;;21.30;13.33;;;;;;;-2.38;89.08;98271.60;2169641;81;20937;-82
2022/12/13 06:39:39;;;;;;;22.73;14.50;;;;;;;-2.35;88.94;98270.88;2169660;81;21028;-84
2022/12/13 06:42:39;;;;;;;29.57;17.50;;;;;;;-2.36;89.05;98278.07;2169556;81;21420;-85
2022/12/13 06:45:40;;;;;;;22.87;15.23;;;;;;;-0.78;100.00;98269.41;2169190;81;21021;-86
2022/12/13 06:48:40;;;;;;;22.90;16.00;;;;;;;-0.19;92.55;98271.66;2169937;81;20969;-85
2022/12/13 06:51:40;;;;;;;13.17;11.77;;;;;;;1.65;100.00;98270.72;2169885;81;20961;-86
2022/12/13 06:54:41;;;;;;;17.80;11.97;;;;;;;0.97;84.76;98278.80;2169842;81;21467;-85
2022/12/13 06:57:42;;;;;;;16.93;12.10;;;;;;;-0.03;82.66;98286.92;2169437;81;20957;-84
2022/12/13 07:00:42;;;;;;;18.03;12.27;;;;;;;-0.78;83.30;98288.64;2169598;82;21002;-84
2022/12/13 07:03:42;;;;;;;21.60;12.63;;;;;;;-1.31;84.45;98294.59;2169857;81;21924;-84
2022/12/13 07:06:42;;;;;;;15.23;11.00;;;;;;;-1.56;86.00;98308.66;2170569;81;21000;-85
2022/12/13 07:09:43;;;;;;;17.53;11.63;;;;;;;-1.65;86.89;98309.95;2170648;81;20961;-84
2022/12/13 07:12:43;;;;;;;17.00;11.73;;;;;;;-1.72;87.13;98310.84;2169966;81;21001;-86
2022/12/13 07:15:44;;;;;;;15.87;12.17;;;;;;;-1.76;87.09;98309.78;2169974;82;20984;-85
2022/12/13 07:18:44;;;;;;;17.90;12.20;;;;;;;-1.79;87.39;98312.58;2171031;81;21028;-86
2022/12/13 07:21:44;;;;;;;22.13;12.40;;;;;;;-1.85;87.61;98317.38;2169932;81;21000;-85
2022/12/13 07:24:45;;;;;;;18.13;13.50;;;;;;;-1.88;87.68;98326.18;2169993;81;21064;-86
2022/12/13 07:27:45;;;;;;;22.57;14.23;;;;;;;-1.88;87.68;98326.18;2176130;81;20992;-85
2022/12/13 07:30:46;;;;;;;23.27;15.13;;;;;;;-1.90;88.14;98337.61;2186534;81;20960;-85
2022/12/13 07:33:46;;;;;;;23.87;14.10;;;;;;;-1.92;88.05;98336.25;2186420;81;20944;-84
2022/12/13 07:36:46;;;;;;;26.07;15.20;;;;;;;-1.84;88.34;98344.73;2186758;81;20953;-85
2022/12/13 07:39:47;;;;;;;20.63;14.10;;;;;;;-1.75;87.76;98342.64;2186670;81;20960;-87
2022/12/13 07:42:47;;;;;;;26.00;16.13;;;;;;;-1.70;87.87;98343.79;2186414;81;20980;-86
2022/12/13 07:45:48;;;;;;;26.40;14.40;;;;;;;-1.70;87.22;98346.35;2186910;81;21056;-85
2022/12/13 07:48:48;;;;;;;28.50;16.13;;;;;;;-1.73;86.98;98352.59;2186742;81;20999;-85
2022/12/13 07:51:49;;;;;;;36.27;17.17;;;;;;;-1.70;87.39;98356.19;2187360;81;21383;-84
2022/12/13 07:54:49;;;;;;;28.20;15.83;;;;;;;-1.68;86.69;98355.86;2187398;81;20948;-85
2022/12/13 07:57:51;;;;;;;30.40;17.40;;;;;;;-1.73;86.60;98356.43;2187615;81;20959;-84
2022/12/13 08:00:50;;;;;;;27.20;16.80;;;;;;;-1.73;86.68;98357.31;2187229;81;21541;-85
2022/12/13 08:03:50;;;;;;;23.83;14.57;;;;;;;-1.71;86.14;98358.27;2187040;81;21023;-84
2022/12/13 08:06:51;;;;;;;31.50;18.23;;;;;;;-1.77;85.60;98357.91;2186813;81;21067;-85
2022/12/13 08:09:51;;;;;;;33.40;19.07;;;;;;;-1.84;84.94;98355.84;2186824;81;21287;-84
2022/12/13 08:12:51;;;;;;;36.70;20.80;;;;;;;-1.93;85.69;98361.36;2186110;81;21395;-84
2022/12/13 08:15:52;;;;;;;49.60;25.73;;;;;;;-1.83;85.51;98365.67;2186335;81;21479;-84
2022/12/13 08:18:52;;;;;;;36.27;19.90;;;;;;;-1.80;85.73;98361.99;2186540;81;20964;-84
2022/12/13 08:21:54;;;;;;;30.70;18.07;;;;;;;-1.79;85.26;98362.08;2186867;81;21059;-84
2022/12/13 08:24:53;;;;;;;32.33;18.30;;;;;;;-1.82;85.18;98376.39;2186780;81;21561;-84
2022/12/13 08:27:53;;;;;;;32.17;19.40;;;;;;;-1.49;84.60;98375.59;2187001;81;21086;-81
2022/12/13 08:30:54;;;;;;;29.47;17.97;;;;;;;-1.49;84.60;98375.59;2187585;81;21043;-83
2022/12/13 08:33:54;;;;;;;34.53;18.93;;;;;;;-1.37;83.62;98375.34;2186649;81;21628;-83
2022/12/13 08:36:55;;;;;;;33.50;17.60;;;;;;;-1.19;84.65;98375.39;2186301;81;21011;-83
2022/12/13 08:39:55;;;;;;;34.17;17.53;;;;;;;-0.90;84.59;98376.42;2186292;81;21255;-85
2022/12/13 08:42:56;;;;;;;32.40;16.87;;;;;;;-0.83;82.93;98383.63;2186324;81;20996;-84
2022/12/13 08:45:56;;;;;;;25.50;16.10;;;;;;;-0.96;82.22;98388.94;2185713;81;21043;-85
2022/12/13 08:48:59;;;;;;;39.67;19.37;;;;;;;-0.96;82.22;98388.94;2186577;81;21268;-85
2022/12/13 08:52:00;;;;;;;49.27;24.67;;;;;;;-1.14;82.59;98385.45;2186681;81;21040;-84
2022/12/13 08:55:00;;;;;;;37.93;21.07;;;;;;;-1.31;83.25;98397.41;2186564;81;21431;-85
2022/12/13 08:58:01;;;;;;;37.10;20.80;;;;;;;-1.46;83.29;98398.80;2186397;81;20971;-82
2022/12/13 09:01:01;;;;;;;26.60;14.87;;;;;;;-1.49;84.06;98395.20;2186469;81;21088;-84
2022/12/13 09:04:02;;;;;;;29.43;17.50;;;;;;;-1.63;81.17;98403.45;2185960;81;20987;-82
2022/12/13 09:07:02;;;;;;;16.67;11.37;;;;;;;-1.80;81.22;98401.66;2185730;81;21703;-82
2022/12/13 09:10:02;;;;;;;26.93;13.17;;;;;;;-2.04;78.21;98404.67;2185927;81;21062;-83
2022/12/13 09:13:03;;;;;;;31.67;13.60;;;;;;;-2.08;78.41;98412.09;2185692;81;21090;-82
2022/12/13 09:16:03;;;;;;;23.93;11.73;;;;;;;-2.28;77.56;98411.02;2185601;81;21449;-81
2022/12/13 09:19:04;;;;;;;18.40;11.57;;;;;;;-2.23;77.99;98402.31;2185927;81;20979;-81
2022/12/13 09:22:04;;;;;;;18.53;10.73;;;;;;;-2.04;75.15;98402.11;2185704;81;21087;-82
2022/12/13 09:25:04;;;;;;;20.00;12.43;;;;;;;-2.04;75.15;98402.11;2185834;81;21406;-83
2022/12/13 09:28:05;;;;;;;21.43;12.03;;;;;;;-2.00;76.90;98402.75;2185882;81;21712;-84
2022/12/13 09:31:05;;;;;;;24.70;11.03;;;;;;;-1.90;76.97;98405.41;2185906;81;20991;-84
2022/12/13 09:34:05;;;;;;;20.57;12.60;;;;;;;-1.79;75.33;98403.41;2185851;81;21015;-82
2022/12/13 09:37:07;;;;;;;18.07;11.37;;;;;;;-1.69;75.13;98400.56;2185948;81;21070;-83
2022/12/13 09:40:06;;;;;;;25.97;13.13;;;;;;;-1.69;75.13;98400.56;2186437;81;20945;-83
2022/12/13 09:43:07;;;;;;;23.73;12.80;;;;;;;-1.81;75.19;98400.77;2186071;81;20991;-83
2022/12/13 09:46:07;;;;;;;16.90;10.30;;;;;;;-1.96;76.36;98401.24;2186627;81;21111;-83
2022/12/13 09:49:07;;;;;;;19.97;11.10;;;;;;;-1.94;74.70;98408.20;2186316;81;21454;-81
2022/12/13 09:52:08;;;;;;;24.70;12.83;;;;;;;-2.13;74.35;98409.29;2185926;81;21001;-83
2022/12/13 09:55:08;;;;;;;23.27;12.93;;;;;;;-2.16;75.28;98406.97;2186221;81;20960;-82
2022/12/13 09:58:09;;;;;;;27.30;13.20;;;;;;;-2.11;75.07;98412.81;2186163;81;21022;-83
2022/12/13 10:01:09;;;;;;;19.67;10.43;;;;;;;-1.94;75.72;98406.92;2186425;81;21079;-82
2022/12/13 10:04:09;;;;;;;17.33;9.40;;;;;;;-1.60;72.92;98407.44;2186755;81;20952;-84
2022/12/13 10:07:10;;;;;;;14.47;9.70;;;;;;;-1.60;72.92;98407.44;2186962;81;20975;-82
2022/12/13 10:10:13;;;;;;;19.23;10.53;;;;;;;-1.52;73.59;98408.72;2185653;81;21023;-81
2022/12/13 10:13:13;;;;;;;12.67;9.93;;;;;;;-1.73;74.42;98408.88;2187561;81;20999;-81
2022/12/13 10:16:14;;;;;;;15.30;8.57;;;;;;;-1.73;74.60;98401.20;2187186;81;21035;-82
2022/12/13 10:19:14;;;;;;;18.73;8.13;;;;;;;-1.78;73.72;98393.66;2186371;81;20971;-82
2022/12/13 10:22:15;;;;;;;9.60;6.17;;;;;;;-1.83;73.38;98395.09;2186398;81;21059;-81
2022/12/13 10:25:15;;;;;;;7.07;5.60;;;;;;;-1.67;73.15;98396.01;2185445;81;21419;-81
2022/12/13 10:28:15;;;;;;;9.37;6.70;;;;;;;-1.31;73.22;98391.02;2185732;81;21070;-81
2022/12/13 10:31:16;;;;;;;10.67;7.13;;;;;;;-0.88;71.83;98397.88;2186611;81;21075;-82
2022/12/13 10:34:16;;;;;;;16.27;7.23;;;;;;;-0.88;71.83;98397.88;2186420;81;21734;-83
2022/12/13 10:37:16;;;;;;;22.27;7.97;;;;;;;-0.86;70.83;98395.42;2186504;81;20940;-85
2022/12/13 10:40:17;;;;;;;18.30;6.90;;;;;;;-0.75;71.58;98382.33;2186396;81;20980;-84
2022/12/13 10:43:19;;;;;;;10.77;6.43;;;;;;;-0.62;69.62;98386.35;2185950;81;20984;-84
2022/12/13 10:46:20;;;;;;;18.43;7.37;;;;;;;-0.54;69.30;98384.16;2186477;81;21395;-84
2022/12/13 10:49:20;;;;;;;16.00;8.70;;;;;;;-0.60;69.54;98383.46;2169826;81;20956;-85
2022/12/13 10:52:21;;;;;;;17.30;7.87;;;;;;;-0.52;70.84;98386.39;2186749;81;21027;-84
2022/12/13 10:55:21;;;;;;;24.50;8.83;;;;;;;-0.22;70.56;98383.98;2186690;81;20971;-82
2022/12/13 10:58:21;;;;;;;23.50;10.23;;;;;;;0.03;69.73;98382.17;2186822;81;21039;-83
2022/12/13 11:01:22;;;;;;;18.77;9.07;;;;;;;-0.12;68.98;98378.47;2187236;81;20964;-84
2022/12/13 11:04:22;;;;;;;12.73;8.07;;;;;;;-0.30;68.25;98386.59;2186695;81;21019;-84
2022/12/13 11:07:22;;;;;;;38.03;10.60;;;;;;;-0.42;69.88;98377.92;2187223;81;20984;-84
2022/12/13 11:10:23;;;;;;;19.93;10.57;;;;;;;-0.24;69.07;98372.77;2187251;81;21000;-84
2022/12/13 11:13:23;;;;;;;16.23;9.03;;;;;;;-0.14;68.55;98369.81;2186621;81;21388;-81
2022/12/13 11:16:24;;;;;;;12.07;8.03;;;;;;;-0.30;68.63;98373.77;2186711;81;21026;-85
2022/12/13 11:19:24;;;;;;;14.00;8.40;;;;;;;-0.37;69.04;98376.85;2186880;81;21012;-84
2022/12/13 11:22:24;;;;;;;17.07;8.90;;;;;;;-0.40;69.20;98377.99;2186510;81;21340;-84
2022/12/13 11:25:25;;;;;;;22.70;10.73;;;;;;;-0.29;68.87;98378.49;2186432;81;21019;-85
2022/12/13 11:28:25;;;;;;;17.53;8.80;;;;;;;-0.33;68.64;98382.60;2183489;81;21056;-82
2022/12/13 11:31:26;;;;;;;21.30;11.27;;;;;;;-0.12;69.37;98377.18;2170074;82;21008;-84
2022/12/13 11:34:26;;;;;;;15.30;10.63;;;;;;;-0.13;67.39;98376.70;2169345;82;21696;-81
2022/12/13 11:37:26;;;;;;;16.47;9.60;;;;;;;-0.48;67.07;98384.45;2168928;81;20925;-79
2022/12/13 11:40:27;;;;;;;19.80;9.53;;;;;;;-0.84;69.12;98382.28;2169668;82;20984;-80
2022/12/13 11:43:27;;;;;;;31.63;10.70;;;;;;;-1.06;69.47;98386.31;2169397;82;20972;-80
2022/12/13 11:46:28;;;;;;;17.67;9.27;;;;;;;-1.18;70.77;98385.70;2169119;81;21051;-79
2022/12/13 11:49:29;;;;;;;19.70;9.87;;;;;;;-1.30;70.87;98387.25;2169447;81;21391;-83
2022/12/13 11:52:29;;;;;;;16.10;10.00;;;;;;;-1.27;71.92;98395.48;2170142;81;20952;-83
2022/12/13 11:55:29;;;;;;;14.50;9.13;;;;;;;-1.27;71.13;98390.77;2170351;81;21291;-83
2022/12/13 11:58:29;;;;;;;17.47;10.07;;;;;;;-1.25;72.67;98383.64;2170240;81;21332;-82
2022/12/13 12:01:30;;;;;;;18.60;10.43;;;;;;;-1.15;72.33;98389.70;2169928;81;20992;-81
2022/12/13 12:04:30;;;;;;;19.47;11.17;;;;;;;-1.19;72.01;98389.47;2170256;81;21024;-81
2022/12/13 12:07:31;;;;;;;15.73;9.80;;;;;;;-1.21;72.21;98385.95;2171076;81;21029;-81
2022/12/13 12:10:31;;;;;;;14.00;9.80;;;;;;;-1.34;71.00;98388.30;2172171;81;20964;-81
2022/12/13 12:13:32;;;;;;;20.37;10.47;;;;;;;-1.47;72.58;98388.48;2170453;81;21024;-82
2022/12/13 12:16:32;;;;;;;18.13;11.70;;;;;;;-1.53;72.51;98391.60;2169976;81;20921;-80
2022/12/13 12:19:32;;;;;;;22.50;11.57;;;;;;;-1.66;73.02;98392.65;2169852;81;20964;-81
2022/12/13 12:22:33;;;;;;;21.60;12.40;;;;;;;-1.62;74.12;98389.84;2169398;81;21412;-80
2022/12/13 12:25:33;;;;;;;20.23;10.90;;;;;;;-1.66;73.98;98392.65;2169694;81;20988;-80
2022/12/13 12:28:34;;;;;;;21.07;11.77;;;;;;;-1.71;73.70;98395.38;2171613;81;20996;-81
2022/12/13 12:31:34;;;;;;;22.60;13.40;;;;;;;-1.86;73.91;98393.66;2186478;81;21412;-82
2022/12/13 12:34:34;;;;;;;32.20;15.10;;;;;;;-2.00;74.41;98395.08;2187253;81;21003;-82
2022/12/13 12:37:35;;;;;;;32.87;16.53;;;;;;;-2.08;74.76;98396.35;2186639;81;20932;-82
2022/12/13 12:40:35;;;;;;;41.13;16.00;;;;;;;-2.08;75.00;98394.19;2186104;81;20983;-82
2022/12/13 12:43:36;;;;;;;41.73;17.87;;;;;;;-2.08;74.72;98401.47;2186074;81;21431;-80
2022/12/13 12:46:36;;;;;;;30.37;15.67;;;;;;;-2.08;74.89;98398.03;2185295;81;20929;-80
2022/12/13 12:49:36;;;;;;;23.57;13.23;;;;;;;-2.03;74.57;98402.98;2185514;81;21196;-81
2022/12/13 12:52:37;;;;;;;22.07;12.23;;;;;;;-2.06;74.39;98408.82;2185734;81;21508;-80
2022/12/13 12:55:37;;;;;;;23.17;13.07;;;;;;;-1.94;74.65;98411.16;2185723;81;21015;-81
2022/12/13 12:58:38;;;;;;;30.57;16.20;;;;;;;-1.84;74.36;98413.40;2185726;81;21300;-81
2022/12/13 13:01:38;;;;;;;25.53;13.63;;;;;;;-1.83;74.52;98411.72;2186235;81;22073;-81
2022/12/13 13:04:41;;;;;;;22.70;13.60;;;;;;;-1.81;73.99;98416.52;2186191;81;20987;-80
2022/12/13 13:07:39;;;;;;;24.87;12.33;;;;;;;-1.89;74.70;98422.91;2186095;81;20932;-81
2022/12/13 13:10:39;;;;;;;27.27;15.53;;;;;;;-1.97;74.43;98425.06;2185705;81;20986;-81
2022/12/13 13:13:40;;;;;;;23.83;14.47;;;;;;;-2.05;74.87;98427.60;2186519;81;20925;-80
2022/12/13 13:16:40;;;;;;;22.40;14.73;;;;;;;-2.13;74.68;98427.19;2186280;81;20901;-80
2022/12/13 13:19:41;;;;;;;27.33;14.70;;;;;;;-2.26;75.10;98433.31;2186249;81;20948;-80
2022/12/13 13:22:41;;;;;;;26.20;14.93;;;;;;;-2.24;75.61;98429.56;2186511;81;21388;-81
2022/12/13 13:25:41;;;;;;;21.23;13.70;;;;;;;-2.19;75.92;98433.25;2186948;81;21006;-80
2022/12/13 13:28:42;;;;;;;22.07;12.63;;;;;;;-1.75;78.42;98429.23;2185201;81;20969;-81
2022/12/13 13:31:42;;;;;;;21.13;12.90;;;;;;;-1.75;78.42;98429.23;2169668;81;21344;-80
2022/12/13 13:34:42;;;;;;;22.50;14.23;;;;;;;-1.65;76.89;98431.92;2170569;81;21000;-79
2022/12/13 13:37:43;;;;;;;21.83;13.37;;;;;;;-1.79;76.24;98436.67;2169733;81;20952;-79
2022/12/13 13:40:43;;;;;;;23.67;14.37;;;;;;;-1.79;76.24;98436.67;2166888;81;20996;-80
2022/12/13 13:43:44;;;;;;;23.47;14.93;;;;;;;-1.79;76.62;98441.39;2166420;81;21270;-77
2022/12/13 13:46:44;;;;;;;31.17;15.97;;;;;;;-1.86;76.20;98439.70;2166748;81;20999;-80
2022/12/13 13:49:45;;;;;;;28.40;13.90;;;;;;;-1.86;76.66;98438.42;2169714;81;20973;-80
2022/12/13 13:52:45;;;;;;;25.03;14.37;;;;;;;-1.88;76.53;98440.90;2170056;81;21679;-81
2022/12/13 13:55:45;;;;;;;24.00;15.50;;;;;;;-2.01;76.51;98448.31;2170823;81;21027;-80
2022/12/13 13:58:46;;;;;;;22.87;14.03;;;;;;;-2.13;76.91;98456.59;2170700;81;21007;-77
2022/12/13 14:01:46;;;;;;;26.20;14.67;;;;;;;-2.17;77.22;98453.79;2167742;82;20968;-77